createdAt,value
2017-06-24T00:00:12.080Z,99.77
2017-06-24T00:00:25.022Z,99.91
2017-06-24T00:00:38.493Z,99.73
2017-06-24T00:00:51.916Z,99.82
2017-06-24T00:01:05.373Z,99.82
2017-06-24T00:01:19.056Z,99.73
2017-06-24T00:01:32.550Z,99.99
2017-06-24T00:01:46.003Z,99.44
2017-06-24T00:01:59.423Z,99.91
2017-06-24T00:02:12.324Z,99.99
2017-06-24T00:02:25.823Z,99.99
2017-06-24T00:02:39.467Z,99.68
2017-06-24T00:02:52.342Z,99.63
2017-06-24T00:03:05.818Z,99.77
2017-06-24T00:03:19.317Z,99.96
2017-06-24T00:03:32.220Z,99.99
2017-06-24T00:03:45.776Z,99.99
2017-06-24T00:03:59.325Z,99.96
2017-06-24T00:04:12.280Z,99.87
2017-06-24T00:04:25.792Z,99.77
2017-06-24T00:04:38.937Z,99.87
2017-06-24T00:04:51.338Z,99.91
2017-06-24T00:05:04.834Z,99.96
2017-06-24T00:05:18.292Z,99.87
2017-06-24T00:05:31.223Z,99.68
2017-06-24T00:05:44.697Z,99.87
2017-06-24T00:05:58.166Z,99.96
2017-06-24T00:06:11.658Z,99.87
2017-06-24T00:06:25.153Z,99.87
2017-06-24T00:06:37.534Z,99.87
2017-06-24T00:06:50.459Z,99.77
2017-06-24T00:07:03.389Z,99.77
2017-06-24T00:07:16.816Z,99.96
2017-06-24T00:07:30.315Z,99.87
2017-06-24T00:07:43.296Z,99.68
2017-06-24T00:07:56.808Z,99.77
2017-06-24T00:08:10.314Z,99.77
2017-06-24T00:08:23.735Z,99.68
2017-06-24T00:08:36.882Z,99.96
2017-06-24T00:08:50.315Z,99.87
2017-06-24T00:09:03.770Z,99.68
2017-06-24T00:09:17.200Z,99.77
2017-06-24T00:09:29.634Z,99.77
2017-06-24T00:09:42.592Z,99.87
2017-06-24T00:09:55.989Z,99.87
2017-06-24T00:10:09.511Z,99.96
2017-06-24T00:10:22.931Z,99.87
2017-06-24T00:10:36.376Z,99.96
2017-06-24T00:10:49.357Z,99.96
2017-06-24T00:11:02.330Z,99.77
2017-06-24T00:11:15.332Z,99.82
2017-06-24T00:11:28.763Z,99.68
2017-06-24T00:11:42.196Z,99.77
2017-06-24T00:11:55.635Z,99.99
2017-06-24T00:12:09.065Z,99.87
2017-06-24T00:12:22.570Z,99.77
2017-06-24T00:12:35.971Z,99.99
2017-06-24T00:12:49.378Z,99.77
2017-06-24T00:13:02.837Z,99.77
2017-06-24T00:13:15.779Z,99.58
2017-06-24T00:13:29.264Z,99.96
2017-06-24T00:13:44.180Z,99.87
2017-06-24T00:13:57.598Z,99.96
2017-06-24T00:14:11.087Z,99.96
2017-06-24T00:14:24.536Z,99.87
2017-06-24T00:14:37.421Z,99.96
2017-06-24T00:14:50.853Z,99.87
2017-06-24T00:15:04.311Z,99.96
2017-06-24T00:15:17.770Z,99.77
2017-06-24T00:15:31.268Z,99.77
2017-06-24T00:15:44.744Z,99.96
2017-06-24T00:15:58.163Z,99.96
2017-06-24T00:16:11.077Z,99.96
2017-06-24T00:16:24.517Z,99.96
2017-06-24T00:16:36.866Z,99.68
2017-06-24T00:16:49.799Z,99.87
2017-06-24T00:17:03.303Z,99.96
2017-06-24T00:17:16.255Z,99.87
2017-06-24T00:17:29.684Z,99.87
2017-06-24T00:17:43.323Z,99.87
2017-06-24T00:17:56.768Z,99.99
2017-06-24T00:18:10.230Z,99.96
2017-06-24T00:18:23.700Z,99.87
2017-06-24T00:18:37.105Z,99.96
2017-06-24T00:18:50.044Z,99.96
2017-06-24T00:19:03.505Z,99.87
2017-06-24T00:19:15.916Z,99.96
2017-06-24T00:19:29.612Z,99.87
2017-06-24T00:19:42.569Z,99.96
2017-06-24T00:19:56.030Z,99.96
2017-06-24T00:20:09.494Z,99.96
2017-06-24T00:20:22.965Z,99.77
2017-06-24T00:20:36.510Z,99.87
2017-06-24T00:20:48.915Z,99.68
2017-06-24T00:21:02.402Z,99.87
2017-06-24T00:21:15.858Z,99.87
2017-06-24T00:21:29.343Z,99.99
2017-06-24T00:21:41.749Z,99.96
2017-06-24T00:21:55.161Z,99.87
2017-06-24T00:22:08.658Z,99.87
2017-06-24T00:22:22.136Z,99.87
2017-06-24T00:22:35.578Z,99.96
2017-06-24T00:22:48.032Z,99.87
2017-06-24T00:23:01.489Z,99.87
2017-06-24T00:23:14.428Z,99.96
2017-06-24T00:23:27.944Z,99.99
2017-06-24T00:23:41.374Z,99.87
2017-06-24T00:23:54.288Z,99.87
2017-06-24T00:24:07.750Z,99.87
2017-06-24T00:24:21.210Z,99.96
2017-06-24T00:24:34.620Z,99.87
2017-06-24T00:24:48.084Z,99.99
2017-06-24T00:25:01.596Z,99.77
2017-06-24T00:25:15.133Z,99.87
2017-06-24T00:25:28.561Z,99.87
2017-06-24T00:25:41.992Z,99.68
2017-06-24T00:25:55.486Z,99.87
2017-06-24T00:26:08.942Z,99.99
2017-06-24T00:26:21.909Z,99.87
2017-06-24T00:26:35.385Z,99.77
2017-06-24T00:26:48.874Z,99.87
2017-06-24T00:27:02.316Z,99.87
2017-06-24T00:27:15.763Z,99.87
2017-06-24T00:27:29.262Z,99.96
2017-06-24T00:27:42.708Z,99.87
2017-06-24T00:27:56.144Z,99.96
2017-06-24T00:28:09.577Z,99.77
2017-06-24T00:28:23.025Z,99.99
2017-06-24T00:28:36.487Z,99.87
2017-06-24T00:28:49.950Z,99.96
2017-06-24T00:29:02.912Z,99.87
2017-06-24T00:29:16.356Z,99.87
2017-06-24T00:29:29.799Z,99.87
2017-06-24T00:29:43.299Z,99.96
2017-06-24T00:29:56.762Z,99.87
2017-06-24T00:30:09.179Z,99.87
2017-06-24T00:30:22.628Z,99.77
2017-06-24T00:30:36.088Z,99.77
2017-06-24T00:30:49.617Z,99.77
2017-06-24T00:31:03.059Z,99.77
2017-06-24T00:31:16.538Z,99.87
2017-06-24T00:31:30.019Z,99.96
2017-06-24T00:31:43.471Z,99.68
2017-06-24T00:31:56.883Z,99.96
2017-06-24T00:32:09.796Z,99.58
2017-06-24T00:32:22.695Z,99.87
2017-06-24T00:32:35.629Z,99.96
2017-06-24T00:32:50.173Z,99.39
2017-06-24T00:33:03.627Z,99.87
2017-06-24T00:33:17.048Z,99.58
2017-06-24T00:33:30.547Z,99.29
2017-06-24T00:33:43.994Z,99.39
2017-06-24T00:33:57.467Z,99.87
2017-06-24T00:34:09.828Z,99.39
2017-06-24T00:34:22.753Z,99.39
2017-06-24T00:34:36.235Z,99.58
2017-06-24T00:34:49.669Z,99.77
2017-06-24T00:35:02.603Z,99.87
2017-06-24T00:35:15.598Z,99.58
2017-06-24T00:35:29.009Z,99.87
2017-06-24T00:35:41.905Z,99.96
2017-06-24T00:35:55.359Z,99.77
2017-06-24T00:36:08.356Z,99.68
2017-06-24T00:36:21.822Z,99.48
2017-06-24T00:36:35.288Z,99.87
2017-06-24T00:36:48.774Z,99.96
2017-06-24T00:37:02.225Z,99.96
2017-06-24T00:37:15.747Z,99.39
2017-06-24T00:37:29.215Z,99.96
2017-06-24T00:37:42.741Z,99.96
2017-06-24T00:37:56.184Z,99.58
2017-06-24T00:38:09.660Z,99.68
2017-06-24T00:38:23.143Z,99.96
2017-06-24T00:38:36.625Z,99.48
2017-06-24T00:38:50.090Z,99.96
2017-06-24T00:39:03.597Z,99.48
2017-06-24T00:39:16.522Z,99.48
2017-06-24T00:39:30.023Z,99.99
2017-06-24T00:39:43.467Z,99.87
2017-06-24T00:39:56.438Z,99.68
2017-06-24T00:40:09.386Z,99.48
2017-06-24T00:40:22.284Z,99.48
2017-06-24T00:40:35.212Z,99.58
2017-06-24T00:40:48.195Z,99.96
2017-06-24T00:41:01.612Z,99.58
2017-06-24T00:41:15.056Z,99.68
2017-06-24T00:41:27.992Z,99.48
2017-06-24T00:41:41.438Z,99.68
2017-06-24T00:41:54.955Z,99.58
2017-06-24T00:42:08.427Z,99.48
2017-06-24T00:42:20.868Z,99.77
2017-06-24T00:42:34.300Z,99.39
2017-06-24T00:42:47.730Z,99.39
2017-06-24T00:43:00.205Z,99.68
2017-06-24T00:43:13.707Z,99.96
2017-06-24T00:43:27.187Z,99.68
2017-06-24T00:43:40.640Z,99.48
2017-06-24T00:43:54.108Z,99.48
2017-06-24T00:44:07.087Z,99.48
2017-06-24T00:44:19.986Z,99.19
2017-06-24T00:44:33.439Z,99.87
2017-06-24T00:44:46.922Z,99.68
2017-06-24T00:45:00.418Z,99.48
2017-06-24T00:45:13.915Z,99.48
2017-06-24T00:45:27.371Z,99.58
2017-06-24T00:45:40.847Z,99.39
2017-06-24T00:45:54.302Z,99.48
2017-06-24T00:46:06.710Z,99.48
2017-06-24T00:46:20.168Z,99.48
2017-06-24T00:46:33.335Z,99.96
2017-06-24T00:46:46.336Z,99.68
2017-06-24T00:46:59.302Z,99.43
2017-06-24T00:47:12.224Z,99.72
2017-06-24T00:47:25.161Z,99.68
2017-06-24T00:47:38.587Z,99.19
2017-06-24T00:47:52.273Z,99.87
2017-06-24T00:48:05.710Z,99.63
2017-06-24T00:48:19.122Z,99.91
2017-06-24T00:48:32.044Z,99.58
2017-06-24T00:48:44.966Z,99.72
2017-06-24T00:48:58.456Z,99.63
2017-06-24T00:49:11.365Z,99.15
2017-06-24T00:49:24.782Z,99.48
2017-06-24T00:49:38.357Z,99.96
2017-06-24T00:49:51.798Z,99.48
2017-06-24T00:50:05.339Z,99.58
2017-06-24T00:50:18.247Z,99.96
2017-06-24T00:50:31.204Z,99.96
2017-06-24T00:50:44.658Z,99.58
2017-06-24T00:50:58.111Z,99.39
2017-06-24T00:51:11.572Z,99.48
2017-06-24T00:51:24.967Z,99.39
2017-06-24T00:51:38.118Z,99.68
2017-06-24T00:51:51.566Z,99.48
2017-06-24T00:52:05.065Z,99.68
2017-06-24T00:52:18.496Z,99.19
2017-06-24T00:52:31.932Z,99.77
2017-06-24T00:52:45.368Z,99.87
2017-06-24T00:52:58.839Z,99.68
2017-06-24T00:53:12.318Z,99.77
2017-06-24T00:53:25.869Z,99.39
2017-06-24T00:53:39.397Z,99.87
2017-06-24T00:53:52.910Z,99.68
2017-06-24T00:54:05.822Z,99.96
2017-06-24T00:54:19.218Z,99.1
2017-06-24T00:54:32.129Z,99.39
2017-06-24T00:54:45.081Z,99.48
2017-06-24T00:54:58.568Z,99.58
2017-06-24T00:55:11.977Z,99.99
2017-06-24T00:55:25.444Z,99.58
2017-06-24T00:55:38.887Z,99.87
2017-06-24T00:55:52.333Z,99.68
2017-06-24T00:56:05.315Z,99.68
2017-06-24T00:56:18.811Z,99.39
2017-06-24T00:56:32.276Z,99.58
2017-06-24T00:56:45.221Z,99.39
2017-06-24T00:56:58.707Z,99.39
2017-06-24T00:57:11.122Z,99.58
2017-06-24T00:57:24.580Z,99.29
2017-06-24T00:57:38.058Z,99.58
2017-06-24T00:57:51.040Z,99.77
2017-06-24T00:58:04.508Z,99.39
2017-06-24T00:58:17.960Z,99.58
2017-06-24T00:58:31.450Z,99.77
2017-06-24T00:58:44.895Z,99.68
2017-06-24T00:58:58.426Z,99.58
2017-06-24T00:59:11.913Z,99.96
2017-06-24T00:59:24.865Z,99.96
2017-06-24T00:59:38.319Z,99.77
2017-06-24T00:59:51.782Z,99.87
2017-06-24T01:00:04.700Z,99.39
2017-06-24T01:00:18.140Z,99.99
2017-06-24T01:00:31.080Z,99.58
2017-06-24T01:00:44.476Z,99.39
2017-06-24T01:00:57.975Z,99.87
2017-06-24T01:01:11.637Z,99.87
2017-06-24T01:01:25.117Z,99.96
2017-06-24T01:01:37.509Z,99.58
2017-06-24T01:01:50.950Z,99.87
2017-06-24T01:02:04.425Z,99.96
2017-06-24T01:02:17.876Z,99.87
2017-06-24T01:02:30.812Z,99.77
2017-06-24T01:02:44.270Z,99.96
2017-06-24T01:02:58.030Z,99.58
2017-06-24T01:03:11.460Z,99.58
2017-06-24T01:03:24.359Z,99.77
2017-06-24T01:03:37.858Z,99.77
2017-06-24T01:03:51.374Z,99.58
2017-06-24T01:04:04.813Z,99.48
2017-06-24T01:04:17.772Z,99.77
2017-06-24T01:04:30.697Z,99.39
2017-06-24T01:04:43.107Z,99.87
2017-06-24T01:04:56.526Z,99.68
2017-06-24T01:05:09.516Z,99.77
2017-06-24T01:05:22.969Z,99.77
2017-06-24T01:05:36.414Z,99.87
2017-06-24T01:05:48.807Z,99.77
2017-06-24T01:06:01.245Z,99.87
2017-06-24T01:06:14.696Z,99.58
2017-06-24T01:06:27.602Z,99.87
2017-06-24T01:06:41.043Z,99.87
2017-06-24T01:06:54.542Z,99.87
2017-06-24T01:07:07.463Z,99.87
2017-06-24T01:07:20.967Z,99.87
2017-06-24T01:07:34.390Z,99.87
2017-06-24T01:07:47.289Z,99.68
2017-06-24T01:07:59.708Z,99.87
2017-06-24T01:08:13.182Z,99.77
2017-06-24T01:08:26.123Z,99.77
2017-06-24T01:08:39.580Z,99.77
2017-06-24T01:08:52.977Z,99.77
2017-06-24T01:09:06.427Z,99.77
2017-06-24T01:09:19.902Z,99.77
2017-06-24T01:09:33.306Z,99.77
2017-06-24T01:09:46.758Z,99.87
2017-06-24T01:10:00.209Z,99.96
2017-06-24T01:10:13.718Z,99.77
2017-06-24T01:10:27.245Z,99.77
2017-06-24T01:10:40.649Z,99.96
2017-06-24T01:10:53.570Z,99.87
2017-06-24T01:11:07.050Z,99.96
2017-06-24T01:11:19.986Z,99.96
2017-06-24T01:11:33.429Z,99.77
2017-06-24T01:11:46.349Z,99.87
2017-06-24T01:11:59.777Z,99.77
2017-06-24T01:12:13.205Z,99.96
2017-06-24T01:12:25.620Z,99.96
2017-06-24T01:12:39.090Z,99.96
2017-06-24T01:12:52.525Z,99.96
2017-06-24T01:13:06.034Z,99.87
2017-06-24T01:13:19.488Z,99.96
2017-06-24T01:13:32.967Z,99.87
2017-06-24T01:13:45.842Z,99.87
2017-06-24T01:13:59.265Z,99.87
2017-06-24T01:14:12.149Z,99.96
2017-06-24T01:14:25.120Z,99.77
2017-06-24T01:14:38.568Z,99.87
2017-06-24T01:14:52.047Z,99.96
2017-06-24T01:15:05.005Z,99.87
2017-06-24T01:15:18.496Z,99.96
2017-06-24T01:15:32.003Z,99.96
2017-06-24T01:15:45.461Z,99.99
2017-06-24T01:15:58.960Z,99.77
2017-06-24T01:16:11.864Z,99.96
2017-06-24T01:16:25.289Z,99.87
2017-06-24T01:16:38.230Z,99.96
2017-06-24T01:16:51.154Z,99.87
2017-06-24T01:17:04.299Z,99.87
2017-06-24T01:17:17.750Z,99.96
2017-06-24T01:17:31.185Z,99.96
2017-06-24T01:17:44.606Z,99.87
2017-06-24T01:17:57.651Z,99.77
2017-06-24T01:18:11.319Z,99.77
2017-06-24T01:18:24.716Z,99.87
2017-06-24T01:18:38.212Z,99.96
2017-06-24T01:18:51.666Z,99.96
2017-06-24T01:19:05.256Z,99.87
2017-06-24T01:19:18.694Z,99.48
2017-06-24T01:19:32.125Z,99.99
2017-06-24T01:19:45.562Z,99.77
2017-06-24T01:19:58.988Z,99.87
2017-06-24T01:20:12.454Z,99.96
2017-06-24T01:20:25.938Z,99.87
2017-06-24T01:20:38.911Z,99.77
2017-06-24T01:20:52.380Z,99.96
2017-06-24T01:21:05.837Z,99.87
2017-06-24T01:21:19.340Z,99.87
2017-06-24T01:21:32.788Z,99.68
2017-06-24T01:21:46.206Z,99.87
2017-06-24T01:21:59.654Z,99.77
2017-06-24T01:22:13.094Z,99.87
2017-06-24T01:22:25.997Z,99.96
2017-06-24T01:22:38.925Z,99.99
2017-06-24T01:22:52.411Z,99.99
2017-06-24T01:23:05.907Z,99.99
2017-06-24T01:23:19.416Z,99.96
2017-06-24T01:23:32.881Z,99.87
2017-06-24T01:23:45.776Z,99.68
2017-06-24T01:23:58.704Z,99.96
2017-06-24T01:24:12.155Z,99.87
2017-06-24T01:24:25.095Z,99.87
2017-06-24T01:24:38.505Z,99.68
2017-06-24T01:24:51.974Z,99.87
2017-06-24T01:25:05.534Z,99.96
2017-06-24T01:25:18.489Z,99.87
2017-06-24T01:25:31.984Z,99.82
2017-06-24T01:25:45.434Z,99.96
2017-06-24T01:25:58.865Z,99.96
2017-06-24T01:26:12.363Z,99.91
2017-06-24T01:26:25.826Z,99.68
2017-06-24T01:26:39.225Z,99.96
2017-06-24T01:26:52.622Z,99.87
2017-06-24T01:27:05.076Z,99.77
2017-06-24T01:27:18.073Z,99.77
2017-06-24T01:27:32.986Z,99.87
2017-06-24T01:27:46.478Z,99.96
2017-06-24T01:27:59.951Z,99.87
2017-06-24T01:28:13.439Z,99.87
2017-06-24T01:28:26.903Z,99.96
2017-06-24T01:28:40.336Z,99.82
2017-06-24T01:28:53.753Z,99.77
2017-06-24T01:29:06.743Z,99.77
2017-06-24T01:29:19.660Z,99.68
2017-06-24T01:29:33.153Z,99.77
2017-06-24T01:29:46.143Z,99.82
2017-06-24T01:29:59.682Z,99.63
2017-06-24T01:30:12.666Z,99.99
2017-06-24T01:30:26.114Z,99.77
2017-06-24T01:30:39.579Z,99.99
2017-06-24T01:30:53.130Z,99.72
2017-06-24T01:31:05.556Z,99.99
2017-06-24T01:31:19.007Z,99.72
2017-06-24T01:31:31.990Z,99.82
2017-06-24T01:31:45.448Z,99.53
2017-06-24T01:31:58.898Z,99.53
2017-06-24T01:32:11.807Z,99.53
2017-06-24T01:32:25.260Z,99.34
2017-06-24T01:32:38.747Z,99.91
2017-06-24T01:32:52.198Z,99.91
2017-06-24T01:33:05.862Z,99.91
2017-06-24T01:33:19.309Z,99.82
2017-06-24T01:33:33.005Z,99.53
2017-06-24T01:33:46.428Z,99.82
2017-06-24T01:33:59.345Z,99.99
2017-06-24T01:34:12.235Z,99.34
2017-06-24T01:34:25.688Z,99.82
2017-06-24T01:34:39.095Z,99.82
2017-06-24T01:34:52.023Z,99.34
2017-06-24T01:35:05.027Z,99.82
2017-06-24T01:35:18.470Z,99.34
2017-06-24T01:35:31.905Z,99.96
2017-06-24T01:35:45.335Z,99.24
2017-06-24T01:35:58.771Z,99.99
2017-06-24T01:36:11.737Z,99.53
2017-06-24T01:36:25.257Z,99.82
2017-06-24T01:36:38.782Z,99.87
2017-06-24T01:36:51.724Z,99.82
2017-06-24T01:37:05.454Z,99.99
2017-06-24T01:37:18.911Z,99.82
2017-06-24T01:37:32.395Z,99.99
2017-06-24T01:37:45.871Z,99.34
2017-06-24T01:37:58.815Z,99.34
2017-06-24T01:38:11.722Z,99.63
2017-06-24T01:38:25.180Z,99.82
2017-06-24T01:38:38.616Z,99.99
2017-06-24T01:38:51.520Z,99.34
2017-06-24T01:39:04.984Z,99.34
2017-06-24T01:39:17.990Z,99.19
2017-06-24T01:39:31.516Z,99.43
2017-06-24T01:39:44.449Z,99.82
2017-06-24T01:39:57.362Z,99.87
2017-06-24T01:40:10.810Z,99.63
2017-06-24T01:40:24.521Z,99.82
2017-06-24T01:40:36.896Z,99.82
2017-06-24T01:40:50.347Z,99.82
2017-06-24T01:41:03.839Z,99.82
2017-06-24T01:41:17.497Z,99.63
2017-06-24T01:41:29.358Z,99.82
2017-06-24T01:41:42.802Z,99.72
2017-06-24T01:41:56.254Z,99.63
2017-06-24T01:42:09.222Z,99.82
2017-06-24T01:42:22.123Z,99.82
2017-06-24T01:42:35.625Z,99.63
2017-06-24T01:42:49.085Z,99.63
2017-06-24T01:43:02.059Z,99.91
2017-06-24T01:43:15.507Z,99.24
2017-06-24T01:43:29.014Z,99.53
2017-06-24T01:43:42.499Z,99.63
2017-06-24T01:43:55.944Z,99.82
2017-06-24T01:44:09.173Z,99.82
2017-06-24T01:44:22.148Z,99.82
2017-06-24T01:44:35.622Z,99.72
2017-06-24T01:44:49.133Z,99.82
2017-06-24T01:45:02.527Z,99.63
2017-06-24T01:45:14.944Z,99.63
2017-06-24T01:45:28.381Z,99.34
2017-06-24T01:45:41.843Z,99.82
2017-06-24T01:45:55.283Z,99.91
2017-06-24T01:46:08.772Z,99.63
2017-06-24T01:46:21.702Z,99.53
2017-06-24T01:46:35.164Z,99.82
2017-06-24T01:46:48.655Z,99.43
2017-06-24T01:47:02.131Z,99.43
2017-06-24T01:47:15.545Z,99.91
2017-06-24T01:47:28.970Z,99.91
2017-06-24T01:47:42.437Z,99.91
2017-06-24T01:47:55.852Z,99.91
2017-06-24T01:48:08.814Z,99.34
2017-06-24T01:48:22.631Z,99.91
2017-06-24T01:48:36.162Z,99.63
2017-06-24T01:48:49.050Z,99.43
2017-06-24T01:49:02.550Z,99.99
2017-06-24T01:49:16.063Z,99.43
2017-06-24T01:49:29.522Z,99.63
2017-06-24T01:49:43.003Z,99.53
2017-06-24T01:49:56.446Z,99.43
2017-06-24T01:50:09.900Z,99.43
2017-06-24T01:50:23.389Z,99.34
2017-06-24T01:50:36.843Z,99.43
2017-06-24T01:50:50.381Z,99.34
2017-06-24T01:51:03.892Z,99.53
2017-06-24T01:51:17.375Z,99.43
2017-06-24T01:51:30.844Z,99.34
2017-06-24T01:51:43.846Z,99.34
2017-06-24T01:51:57.283Z,99.63
2017-06-24T01:52:10.729Z,99.63
2017-06-24T01:52:23.694Z,98.96
2017-06-24T01:52:37.108Z,98.96
2017-06-24T01:52:50.521Z,99.63
2017-06-24T01:53:03.973Z,99.15
2017-06-24T01:53:17.450Z,99.53
2017-06-24T01:53:30.380Z,99.05
2017-06-24T01:53:43.821Z,99.05
2017-06-24T01:53:57.304Z,98.96
2017-06-24T01:54:10.729Z,99.34
2017-06-24T01:54:24.173Z,99.05
2017-06-24T01:54:37.626Z,99.15
2017-06-24T01:54:51.201Z,99.24
2017-06-24T01:55:04.726Z,99.15
2017-06-24T01:55:18.183Z,99.24
2017-06-24T01:55:31.621Z,99.15
2017-06-24T01:55:45.118Z,99.15
2017-06-24T01:55:58.595Z,99.34
2017-06-24T01:56:11.523Z,99.24
2017-06-24T01:56:24.958Z,99.34
2017-06-24T01:56:38.403Z,99.34
2017-06-24T01:56:52.158Z,99.15
2017-06-24T01:57:05.094Z,99.34
2017-06-24T01:57:18.555Z,99.15
2017-06-24T01:57:31.468Z,99.15
2017-06-24T01:57:44.916Z,99.43
2017-06-24T01:57:58.367Z,99.34
2017-06-24T01:58:11.832Z,99.24
2017-06-24T01:58:25.253Z,99.15
2017-06-24T01:58:38.205Z,99.53
2017-06-24T01:58:51.654Z,99.24
2017-06-24T01:59:05.139Z,99.43
2017-06-24T01:59:18.594Z,99.34
2017-06-24T01:59:32.075Z,99.34
2017-06-24T01:59:45.512Z,99.24
2017-06-24T01:59:58.925Z,99.24
2017-06-24T02:00:12.342Z,99.53
2017-06-24T02:00:25.513Z,99.24
2017-06-24T02:00:38.953Z,99.34
2017-06-24T02:00:52.382Z,99.34
2017-06-24T02:01:05.375Z,99.34
2017-06-24T02:01:18.739Z,99.24
2017-06-24T02:01:32.240Z,99.15
2017-06-24T02:01:45.587Z,99.34
2017-06-24T02:01:59.016Z,99.24
2017-06-24T02:02:12.491Z,99.15
2017-06-24T02:02:26.023Z,99.24
2017-06-24T02:02:39.482Z,99.24
2017-06-24T02:02:52.454Z,99.24
2017-06-24T02:03:05.936Z,99.34
2017-06-24T02:03:19.127Z,99.53
2017-06-24T02:03:32.079Z,99.43
2017-06-24T02:03:45.488Z,99.43
2017-06-24T02:03:58.933Z,99.43
2017-06-24T02:04:12.367Z,99.34
2017-06-24T02:04:25.773Z,99.34
2017-06-24T02:04:38.700Z,99.34
2017-06-24T02:04:51.653Z,99.34
2017-06-24T02:05:05.176Z,99.43
2017-06-24T02:05:18.595Z,99.34
2017-06-24T02:05:32.077Z,99.34
2017-06-24T02:05:45.534Z,99.43
2017-06-24T02:05:59.067Z,99.34
2017-06-24T02:06:12.615Z,99.43
2017-06-24T02:06:25.539Z,99.43
2017-06-24T02:06:38.464Z,99.34
2017-06-24T02:06:51.866Z,99.43
2017-06-24T02:07:04.775Z,99.34
2017-06-24T02:07:17.732Z,99.43
2017-06-24T02:07:31.227Z,99.15
2017-06-24T02:07:44.666Z,99.34
2017-06-24T02:07:58.083Z,99.05
2017-06-24T02:08:11.028Z,99.05
2017-06-24T02:08:24.530Z,99.34
2017-06-24T02:08:37.457Z,99.43
2017-06-24T02:08:50.895Z,99.43
2017-06-24T02:09:03.314Z,99.34
2017-06-24T02:09:16.788Z,99.34
2017-06-24T02:09:30.455Z,99.15
2017-06-24T02:09:43.859Z,99.34
2017-06-24T02:09:57.273Z,99.34
2017-06-24T02:10:10.818Z,99.34
2017-06-24T02:10:24.278Z,99.53
2017-06-24T02:10:37.692Z,99.15
2017-06-24T02:10:51.112Z,99.15
2017-06-24T02:11:03.501Z,99.34
2017-06-24T02:11:16.928Z,99.24
2017-06-24T02:11:30.462Z,98.96
2017-06-24T02:11:43.419Z,98.96
2017-06-24T02:11:56.867Z,99.15
2017-06-24T02:12:10.309Z,99.05
2017-06-24T02:12:23.253Z,99.15
2017-06-24T02:12:36.146Z,99.05
2017-06-24T02:12:49.572Z,99.15
2017-06-24T02:13:03.001Z,99.24
2017-06-24T02:13:16.000Z,98.96
2017-06-24T02:13:29.478Z,99.15
2017-06-24T02:13:42.531Z,99.05
2017-06-24T02:13:55.990Z,99.24
2017-06-24T02:14:09.475Z,99.15
2017-06-24T02:14:22.874Z,99.15
2017-06-24T02:14:35.822Z,99.15
2017-06-24T02:14:48.770Z,98.96
2017-06-24T02:15:02.242Z,99.63
2017-06-24T02:15:15.678Z,99.15
2017-06-24T02:15:29.147Z,98.96
2017-06-24T02:15:42.597Z,99.34
2017-06-24T02:15:56.032Z,99.05
2017-06-24T02:16:09.496Z,99.34
2017-06-24T02:16:22.977Z,99.05
2017-06-24T02:16:36.411Z,98.96
2017-06-24T02:16:49.822Z,99.05
2017-06-24T02:17:03.346Z,99.53
2017-06-24T02:17:16.222Z,99.05
2017-06-24T02:17:29.714Z,99.05
2017-06-24T02:17:43.178Z,99.24
2017-06-24T02:17:56.643Z,99.53
2017-06-24T02:18:10.126Z,99.15
2017-06-24T02:18:23.812Z,98.96
2017-06-24T02:18:37.301Z,99.15
2017-06-24T02:18:50.761Z,99.53
2017-06-24T02:19:03.707Z,99.15
2017-06-24T02:19:16.658Z,99.05
2017-06-24T02:19:30.097Z,99.19
2017-06-24T02:19:43.520Z,99.24
2017-06-24T02:19:56.974Z,99.15
2017-06-24T02:20:10.409Z,99.15
2017-06-24T02:20:23.893Z,98.96
2017-06-24T02:20:37.281Z,99.53
2017-06-24T02:20:50.992Z,99.05
2017-06-24T02:21:04.479Z,99.24
2017-06-24T02:21:17.949Z,99.24
2017-06-24T02:21:30.894Z,99.34
2017-06-24T02:21:44.303Z,99.15
2017-06-24T02:21:57.774Z,99.34
2017-06-24T02:22:11.250Z,99.53
2017-06-24T02:22:24.169Z,99.29
2017-06-24T02:22:37.637Z,99.43
2017-06-24T02:22:51.126Z,99.91
2017-06-24T02:23:04.560Z,99.34
2017-06-24T02:23:17.484Z,99.82
2017-06-24T02:23:30.921Z,99.91
2017-06-24T02:23:44.383Z,99.34
2017-06-24T02:23:57.825Z,99.34
2017-06-24T02:24:11.271Z,99.53
2017-06-24T02:24:24.742Z,99.43
2017-06-24T02:24:38.187Z,99.99
2017-06-24T02:24:51.647Z,99.43
2017-06-24T02:25:05.078Z,99.43
2017-06-24T02:25:18.550Z,99.15
2017-06-24T02:25:31.985Z,99.63
2017-06-24T02:25:45.382Z,99.15
2017-06-24T02:25:58.873Z,99.68
2017-06-24T02:26:12.541Z,99.72
2017-06-24T02:26:26.001Z,99.15
2017-06-24T02:26:39.487Z,99.72
2017-06-24T02:26:52.379Z,99.91
2017-06-24T02:27:05.876Z,99.63
2017-06-24T02:27:18.818Z,99.53
2017-06-24T02:27:31.721Z,99.63
2017-06-24T02:27:45.151Z,99.63
2017-06-24T02:27:58.608Z,99.91
2017-06-24T02:28:12.073Z,99.82
2017-06-24T02:28:25.519Z,99.82
2017-06-24T02:28:38.408Z,99.53
2017-06-24T02:28:51.850Z,99.99
2017-06-24T02:29:03.730Z,99.91
2017-06-24T02:29:16.654Z,99.34
2017-06-24T02:29:29.650Z,99.91
2017-06-24T02:29:43.077Z,99.34
2017-06-24T02:29:56.541Z,99.34
2017-06-24T02:30:09.514Z,99.34
2017-06-24T02:30:22.958Z,99.82
2017-06-24T02:30:36.455Z,99.24
2017-06-24T02:30:49.940Z,99.34
2017-06-24T02:31:03.462Z,99.24
2017-06-24T02:31:16.882Z,99.82
2017-06-24T02:31:30.373Z,99.82
2017-06-24T02:31:43.790Z,99.63
2017-06-24T02:31:57.297Z,99.82
2017-06-24T02:32:10.236Z,99.43
2017-06-24T02:32:23.214Z,99.72
2017-06-24T02:32:36.202Z,99.91
2017-06-24T02:32:49.145Z,99.63
2017-06-24T02:33:02.569Z,99.53
2017-06-24T02:33:15.980Z,99.63
2017-06-24T02:33:29.680Z,99.63
2017-06-24T02:33:43.154Z,99.63
2017-06-24T02:33:56.636Z,99.63
2017-06-24T02:34:10.201Z,99.53
2017-06-24T02:34:23.708Z,99.82
2017-06-24T02:34:37.205Z,99.91
2017-06-24T02:34:50.652Z,99.53
2017-06-24T02:35:04.119Z,99.91
2017-06-24T02:35:17.590Z,99.53
2017-06-24T02:35:31.011Z,99.91
2017-06-24T02:35:43.918Z,99.91
2017-06-24T02:35:57.439Z,99.91
2017-06-24T02:36:10.894Z,99.63
2017-06-24T02:36:23.831Z,99.63
2017-06-24T02:36:37.348Z,99.34
2017-06-24T02:36:50.771Z,99.15
2017-06-24T02:37:04.261Z,99.05
2017-06-24T02:37:17.748Z,99.34
2017-06-24T02:37:30.700Z,99.34
2017-06-24T02:37:44.153Z,99.34
2017-06-24T02:37:57.611Z,99.15
2017-06-24T02:38:11.016Z,99.63
2017-06-24T02:38:23.934Z,99.63
2017-06-24T02:38:37.487Z,99.34
2017-06-24T02:38:50.942Z,99.53
2017-06-24T02:39:04.418Z,99.63
2017-06-24T02:39:17.907Z,99.63
2017-06-24T02:39:31.408Z,99.43
2017-06-24T02:39:44.909Z,99.05
2017-06-24T02:39:58.333Z,99.05
2017-06-24T02:40:11.750Z,99.53
2017-06-24T02:40:25.259Z,99.15
2017-06-24T02:40:38.415Z,99.34
2017-06-24T02:40:51.877Z,99.34
2017-06-24T02:41:04.294Z,99.15
2017-06-24T02:41:17.743Z,99.34
2017-06-24T02:41:31.527Z,99.34
2017-06-24T02:41:45.047Z,99.43
2017-06-24T02:41:58.520Z,99.34
2017-06-24T02:42:11.927Z,99.34
2017-06-24T02:42:25.384Z,99.53
2017-06-24T02:42:38.301Z,99.53
2017-06-24T02:42:51.775Z,99.43
2017-06-24T02:43:05.265Z,99.43
2017-06-24T02:43:18.207Z,99.24
2017-06-24T02:43:31.632Z,99.34
2017-06-24T02:43:45.029Z,99.53
2017-06-24T02:43:58.543Z,99.53
2017-06-24T02:44:12.002Z,99.34
2017-06-24T02:44:25.436Z,99.43
2017-06-24T02:44:38.907Z,99.34
2017-06-24T02:44:52.307Z,99.34
2017-06-24T02:45:05.811Z,99.43
2017-06-24T02:45:19.283Z,99.53
2017-06-24T02:45:32.783Z,99.24
2017-06-24T02:45:46.194Z,99.15
2017-06-24T02:45:59.123Z,99.15
2017-06-24T02:46:12.586Z,99.15
2017-06-24T02:46:25.493Z,99.63
2017-06-24T02:46:38.928Z,99.53
2017-06-24T02:46:52.368Z,99.53
2017-06-24T02:47:05.831Z,99.15
2017-06-24T02:47:19.243Z,99.15
2017-06-24T02:47:32.674Z,99.53
2017-06-24T02:47:46.173Z,99.15
2017-06-24T02:47:59.673Z,99.15
2017-06-24T02:48:13.105Z,99.15
2017-06-24T02:48:26.566Z,99.15
2017-06-24T02:48:40.258Z,99.24
2017-06-24T02:48:53.734Z,99.53
2017-06-24T02:49:07.176Z,99.24
2017-06-24T02:49:20.639Z,99.34
2017-06-24T02:49:34.015Z,99.24
2017-06-24T02:49:47.463Z,99.43
2017-06-24T02:50:00.909Z,99.15
2017-06-24T02:50:14.394Z,99.43
2017-06-24T02:50:27.313Z,99.15
2017-06-24T02:50:40.791Z,99.34
2017-06-24T02:50:54.249Z,99.43
2017-06-24T02:51:07.184Z,99.43
2017-06-24T02:51:20.714Z,99.43
2017-06-24T02:51:33.637Z,99.43